Terminal Aerodrome Forecast
Issued by NWS

Home | Current Version | Previous Version | Graphics & Text | Print | Product List | Glossary On
Versions: 1 2 3 4 5 6 7 8 9 10 11 12 13 14 15 16 17 18 19 20
114
FTUS43 KFGF 071733
TAFBJI
TAF
KBJI 071733Z 0718/0818 29018G25KT 3/4SM -SN BLSN OVC008
      TEMPO 0718/0721 2SM -SN BLSN OVC012
     FM080100 31018G25KT 4SM -SN BKN015
     FM081200 32015G22KT P6SM -SN OVC015=

USA.gov is the U.S. government's official web portal to all federal, state and local government web resources and services.